Time;durP1;ratioP1;P1;durP2;ratioP2;P2;SDS_P1;SDS_P2;PMS_P1;PMS_P2;Temp;Humidity;BMP_temperature;BMP_pressure;BME280_temperature;BME280_humidity;BME280_pressure;Samples;Min_cycle;Max_cycle;Signal;HPM_P1;HPM_P2
2022/06/21 00:00:17;;;;;;;5.03;1.50;;;11.50;52.20;;;;;;5048616;28;20462;-52
2022/06/21 00:02:46;;;;;;;4.60;1.37;;;11.60;52.80;;;;;;5048313;28;20539;-53
2022/06/21 00:05:17;;;;;;;6.10;1.80;;;11.60;41.90;;;;;;5049118;28;21033;-53
2022/06/21 00:07:44;;;;;;;6.07;1.90;;;11.60;44.40;;;;;;5052462;28;20507;-53
2022/06/21 00:10:14;;;;;;;2.43;1.43;;;11.60;45.40;;;;;;5050572;28;20478;-54
2022/06/21 00:12:41;;;;;;;2.60;1.70;;;11.60;45.80;;;;;;5049753;28;20551;-53
2022/06/21 00:15:08;;;;;;;3.57;1.37;;;11.60;41.80;;;;;;5054641;28;20452;-52
2022/06/21 00:17:35;;;;;;;4.10;2.17;;;11.70;39.30;;;;;;5051353;28;20454;-53
2022/06/21 00:20:04;;;;;;;2.53;1.60;;;11.70;38.20;;;;;;5049496;28;20454;-53
2022/06/21 00:22:31;;;;;;;4.20;2.00;;;11.70;36.60;;;;;;5049934;28;21046;-52
2022/06/21 00:24:57;;;;;;;2.27;1.70;;;11.70;33.10;;;;;;5050264;28;20515;-52
2022/06/21 00:27:24;;;;;;;3.60;1.80;;;11.70;29.10;;;;;;5048923;28;20461;-52
2022/06/21 00:29:51;;;;;;;5.20;2.13;;;11.70;31.20;;;;;;5049962;28;20482;-52
2022/06/21 00:32:20;;;;;;;3.97;1.90;;;11.70;26.50;;;;;;5049156;28;20477;-52
2022/06/21 00:34:47;;;;;;;5.90;2.30;;;11.70;26.50;;;;;;5049267;28;20461;-52
2022/06/21 00:37:20;;;;;;;4.90;2.20;;;11.70;21.80;;;;;;5050231;28;20511;-53
2022/06/21 00:39:47;;;;;;;3.80;1.90;;;11.70;20.60;;;;;;5050237;28;20519;-53
2022/06/21 00:42:20;;;;;;;4.30;2.47;;;11.70;97.70;;;;;;5049861;28;20493;-53
2022/06/21 00:44:53;;;;;;;2.73;1.73;;;11.70;99.90;;;;;;5048937;28;20454;-53
2022/06/21 00:47:26;;;;;;;8.57;2.20;;;11.70;99.90;;;;;;5049981;28;20492;-53
2022/06/21 00:49:57;;;;;;;4.03;2.50;;;11.70;98.20;;;;;;5049985;28;20508;-52
2022/06/21 00:52:33;;;;;;;4.77;2.53;;;11.70;99.90;;;;;;5048521;28;20508;-53
2022/06/21 00:55:05;;;;;;;3.50;2.10;;;11.80;99.90;;;;;;5046814;28;20484;-54
2022/06/21 00:57:37;;;;;;;4.60;2.30;;;11.80;99.90;;;;;;5049997;28;20492;-54
2022/06/21 01:00:26;;;;;;;2.20;1.97;;;11.80;99.90;;;;;;5048872;28;20515;-53
2022/06/21 01:02:54;;;;;;;4.03;1.80;;;11.70;99.90;;;;;;5048501;28;20481;-52
2022/06/21 01:05:22;;;;;;;5.63;3.20;;;11.70;99.90;;;;;;5049829;28;20458;-53
2022/06/21 01:07:52;;;;;;;6.10;2.40;;;11.70;99.90;;;;;;5048277;28;20533;-53
2022/06/21 01:10:19;;;;;;;7.27;2.60;;;11.70;99.90;;;;;;5049020;28;20478;-53
2022/06/21 01:12:49;;;;;;;7.23;3.17;;;11.60;99.90;;;;;;5048713;28;20999;-53
2022/06/21 01:15:20;;;;;;;5.10;2.10;;;11.60;99.90;;;;;;5048269;28;20543;-53
2022/06/21 01:17:48;;;;;;;7.50;2.80;;;11.60;99.90;;;;;;5046842;28;20470;-52
2022/06/21 01:20:20;;;;;;;3.60;1.93;;;11.60;99.90;;;;;;5050171;28;20872;-53
2022/06/21 01:22:52;;;;;;;2.63;2.43;;;11.60;99.90;;;;;;5044927;28;20485;-53
2022/06/21 01:25:31;;;;;;;4.97;2.10;;;11.60;99.90;;;;;;5046322;28;20466;-52
2022/06/21 01:28:00;;;;;;;5.23;3.07;;;11.60;99.90;;;;;;5040626;28;20489;-53
2022/06/21 01:30:28;;;;;;;3.07;2.03;;;11.60;99.90;;;;;;5045843;28;20809;-53
2022/06/21 01:32:58;;;;;;;2.83;2.33;;;11.60;99.90;;;;;;5047673;28;20504;-53
2022/06/21 01:35:31;;;;;;;7.00;2.77;;;11.60;99.90;;;;;;5049254;28;20468;-54
2022/06/21 01:37:59;;;;;;;8.50;3.00;;;11.70;99.90;;;;;;5043762;28;20462;-51
2022/06/21 01:40:30;;;;;;;6.53;2.47;;;11.60;99.90;;;;;;5050436;28;20458;-52
2022/06/21 01:43:02;;;;;;;4.93;2.33;;;11.70;99.90;;;;;;5040805;28;21077;-53
2022/06/21 01:45:34;;;;;;;5.53;2.63;;;11.60;99.90;;;;;;5049951;28;20952;-54
2022/06/21 01:48:08;;;;;;;9.77;2.70;;;11.70;99.90;;;;;;5048756;28;20512;-53
2022/06/21 01:50:37;;;;;;;5.53;2.33;;;11.70;99.90;;;;;;5049439;28;20522;-54
2022/06/21 01:53:04;;;;;;;2.40;2.20;;;11.70;99.90;;;;;;5047472;28;20905;-53
2022/06/21 01:55:39;;;;;;;3.67;2.47;;;11.70;99.90;;;;;;5049630;28;20527;-53
2022/06/21 01:58:12;;;;;;;5.60;2.37;;;11.70;99.90;;;;;;5046995;28;20515;-52
2022/06/21 02:00:44;;;;;;;4.50;2.10;;;11.60;99.90;;;;;;5047265;28;20454;-54
2022/06/21 02:03:17;;;;;;;3.63;2.53;;;11.60;99.90;;;;;;5044763;28;20482;-53
2022/06/21 02:05:49;;;;;;;4.10;2.50;;;11.60;99.90;;;;;;5053061;28;20458;-52
2022/06/21 02:08:19;;;;;;;5.70;2.70;;;11.60;99.90;;;;;;5048496;28;20450;-52
2022/06/21 02:10:48;;;;;;;4.27;2.40;;;11.60;99.90;;;;;;5046024;28;20506;-53
2022/06/21 02:13:21;;;;;;;6.03;2.40;;;11.60;99.90;;;;;;5046431;28;20517;-54
2022/06/21 02:15:51;;;;;;;2.87;2.57;;;11.60;99.90;;;;;;5050733;28;21028;-53
2022/06/21 02:18:20;;;;;;;5.30;2.87;;;11.60;99.90;;;;;;5049032;28;20982;-54
2022/06/21 02:20:50;;;;;;;3.77;2.43;;;11.60;99.90;;;;;;5049422;28;20504;-53
2022/06/21 02:23:20;;;;;;;12.87;2.87;;;11.60;99.90;;;;;;5047629;28;20577;-53
2022/06/21 02:25:47;;;;;;;6.73;2.40;;;11.50;99.90;;;;;;5049434;28;20548;-54
2022/06/21 02:28:17;;;;;;;7.23;2.50;;;11.50;99.90;;;;;;5046098;28;20542;-52
2022/06/21 02:30:45;;;;;;;4.67;2.90;;;11.50;99.90;;;;;;5047786;28;20474;-54
2022/06/21 02:33:16;;;;;;;5.93;2.13;;;11.50;99.90;;;;;;5048081;28;21055;-53
2022/06/21 02:35:47;;;;;;;8.50;2.80;;;11.50;99.90;;;;;;5051049;28;20458;-53
2022/06/21 02:38:18;;;;;;;4.37;2.30;;;11.50;99.90;;;;;;5043523;28;20489;-54
2022/06/21 02:40:53;;;;;;;8.37;3.47;;;11.50;99.90;;;;;;5047082;28;20498;-53
2022/06/21 02:43:26;;;;;;;4.57;3.03;;;11.30;99.90;;;;;;5051270;28;20485;-53
2022/06/21 02:45:57;;;;;;;3.73;2.60;;;11.40;99.90;;;;;;5048408;28;20512;-53
2022/06/21 02:48:28;;;;;;;4.67;2.50;;;11.30;99.90;;;;;;5046718;28;20550;-53
2022/06/21 02:50:59;;;;;;;3.13;2.20;;;11.40;99.90;;;;;;5037923;28;20971;-53
2022/06/21 02:53:30;;;;;;;5.50;2.70;;;11.40;99.90;;;;;;5046718;28;20478;-52
2022/06/21 02:56:01;;;;;;;3.00;2.00;;;11.40;99.90;;;;;;5047003;28;20486;-52
2022/06/21 02:58:36;;;;;;;6.10;2.93;;;11.40;99.90;;;;;;5047985;28;20452;-54
2022/06/21 03:01:06;;;;;;;6.43;2.60;;;11.30;99.90;;;;;;5047022;28;20453;-53
2022/06/21 03:03:34;;;;;;;6.57;2.63;;;11.30;99.90;;;;;;5048868;28;20539;-53
2022/06/21 03:06:04;;;;;;;8.50;2.87;;;11.30;99.90;;;;;;5047308;28;20524;-54
2022/06/21 03:08:33;;;;;;;5.83;2.80;;;11.30;99.90;;;;;;5049084;28;20466;-53
2022/06/21 03:11:00;;;;;;;6.37;3.17;;;11.30;99.90;;;;;;5046707;28;20513;-54
2022/06/21 03:13:32;;;;;;;10.23;2.90;;;11.30;99.90;;;;;;5049442;28;20574;-53
2022/06/21 03:16:02;;;;;;;8.93;3.43;;;11.30;99.90;;;;;;5054324;28;20457;-54
2022/06/21 03:18:33;;;;;;;4.10;2.10;;;11.30;99.90;;;;;;5052336;28;20559;-51
2022/06/21 03:21:03;;;;;;;8.20;2.33;;;11.30;99.90;;;;;;5050988;28;20524;-54
2022/06/21 03:23:30;;;;;;;7.83;3.00;;;11.30;99.90;;;;;;5049107;28;20492;-53
2022/06/21 03:26:00;;;;;;;9.03;2.70;;;11.30;99.90;;;;;;5051622;28;20826;-53
2022/06/21 03:28:33;;;;;;;4.70;3.20;;;11.30;99.90;;;;;;5051769;28;20477;-52
2022/06/21 03:31:08;;;;;;;4.53;2.53;;;11.30;99.90;;;;;;5050865;28;20492;-53
2022/06/21 03:33:38;;;;;;;9.80;2.40;;;11.30;99.90;;;;;;5051764;28;20481;-51
2022/06/21 03:36:09;;;;;;;5.77;2.30;;;11.30;99.90;;;;;;5051480;28;20490;-53
2022/06/21 03:38:38;;;;;;;8.10;2.30;;;11.40;99.90;;;;;;5048062;28;21011;-52
2022/06/21 03:43:54;;;;;;;8.03;2.63;;;11.40;99.90;;;;;;5050834;28;20949;-52
2022/06/21 03:46:26;;;;;;;10.63;2.43;;;11.50;99.90;;;;;;5051460;28;20457;-54
2022/06/21 03:48:58;;;;;;;3.33;2.33;;;11.50;99.90;;;;;;5047702;28;20863;-53
2022/06/21 03:51:29;;;;;;;7.07;2.73;;;11.50;99.90;;;;;;5050813;28;20512;-53
2022/06/21 03:54:01;;;;;;;7.17;2.40;;;11.50;99.90;;;;;;5046677;28;20520;-53
2022/06/21 03:56:33;;;;;;;6.73;3.70;;;11.50;99.90;;;;;;5052796;28;20465;-53
2022/06/21 03:59:10;;;;;;;3.67;2.50;;;11.50;99.90;;;;;;5049020;28;20545;-53
2022/06/21 04:01:48;;;;;;;9.17;4.03;;;11.60;99.90;;;;;;5050454;28;20639;-53
2022/06/21 04:04:21;;;;;;;8.83;3.10;;;11.60;99.90;;;;;;5049068;28;20987;-53
2022/06/21 04:06:54;;;;;;;4.20;2.93;;;11.60;99.90;;;;;;5051469;28;20841;-53
2022/06/21 04:09:28;;;;;;;11.20;3.07;;;11.60;99.90;;;;;;5046905;28;20959;-53
2022/06/21 04:12:02;;;;;;;9.45;2.90;;;11.60;99.90;;;;;;5048078;28;20476;-53
2022/06/21 04:14:36;;;;;;;7.97;3.13;;;11.60;99.90;;;;;;5051159;28;20199;-52
2022/06/21 04:17:10;;;;;;;13.20;3.90;;;11.60;99.90;;;;;;5044762;28;20988;-53
2022/06/21 04:19:41;;;;;;;14.70;3.10;;;11.60;99.90;;;;;;5044667;28;20468;-52
2022/06/21 04:22:13;;;;;;;5.80;2.67;;;11.70;99.90;;;;;;5052072;28;20898;-54
2022/06/21 04:24:47;;;;;;;3.93;2.63;;;11.70;99.90;;;;;;5048340;28;20516;-51
2022/06/21 04:27:19;;;;;;;8.23;3.67;;;11.80;99.90;;;;;;5051068;28;20505;-53
2022/06/21 04:29:53;;;;;;;4.43;2.70;;;11.80;99.90;;;;;;5048055;28;20508;-54
2022/06/21 04:32:24;;;;;;;6.13;3.07;;;11.80;99.90;;;;;;5050871;28;20490;-53
2022/06/21 04:34:57;;;;;;;16.90;4.30;;;11.80;99.90;;;;;;5047156;28;20458;-53
2022/06/21 04:37:27;;;;;;;6.73;3.60;;;11.90;99.90;;;;;;5048316;28;20454;-52
2022/06/21 04:39:58;;;;;;;8.47;3.97;;;11.90;99.90;;;;;;5044483;28;20462;-53
2022/06/21 04:42:31;;;;;;;13.93;4.13;;;11.90;99.90;;;;;;5046507;28;20509;-52
2022/06/21 04:45:05;;;;;;;8.43;3.87;;;12.00;99.90;;;;;;5048118;28;20454;-53
2022/06/21 04:47:35;;;;;;;6.97;3.53;;;12.00;99.90;;;;;;5042234;28;20522;-52
2022/06/21 04:50:05;;;;;;;7.20;3.03;;;12.00;99.90;;;;;;5048792;28;20825;-53
2022/06/21 04:52:39;;;;;;;8.50;3.93;;;12.00;99.90;;;;;;5046629;28;20496;-53
2022/06/21 04:55:13;;;;;;;6.40;3.47;;;12.00;99.90;;;;;;5045646;28;20839;-53
2022/06/21 04:57:39;;;;;;;12.33;3.87;;;12.00;99.90;;;;;;5046536;28;20881;-53
2022/06/21 05:00:14;;;;;;;7.27;3.03;;;12.10;99.90;;;;;;5045329;28;20486;-53
2022/06/21 05:02:46;;;;;;;12.70;3.50;;;12.20;99.90;;;;;;5045367;28;20898;-53
2022/06/21 05:05:18;;;;;;;7.17;3.13;;;12.20;99.90;;;;;;5049285;28;20466;-53
2022/06/21 05:07:48;;;;;;;6.80;4.43;;;12.20;99.90;;;;;;5044424;28;20979;-53
2022/06/21 05:10:17;;;;;;;17.80;3.97;;;12.30;99.90;;;;;;5040189;28;20490;-53
2022/06/21 05:12:46;;;;;;;7.87;3.30;;;12.30;99.90;;;;;;5045817;28;20902;-53
2022/06/21 05:15:18;;;;;;;11.70;3.57;;;12.30;99.90;;;;;;5044432;28;20520;-53
2022/06/21 05:17:50;;;;;;;13.63;4.00;;;12.40;99.90;;;;;;5044159;28;20597;-54
2022/06/21 05:20:20;;;;;;;5.53;2.80;;;12.40;99.90;;;;;;5043277;28;20552;-53
2022/06/21 05:22:50;;;;;;;11.00;3.30;;;12.40;99.90;;;;;;5040929;28;20493;-52
2022/06/21 05:25:22;;;;;;;7.93;3.40;;;12.50;99.90;;;;;;5045711;28;21017;-51
2022/06/21 05:27:53;;;;;;;10.30;3.60;;;12.50;99.90;;;;;;5046688;28;20464;-51
2022/06/21 05:30:27;;;;;;;7.83;3.43;;;12.60;99.90;;;;;;5050799;28;20547;-52
2022/06/21 05:32:58;;;;;;;7.93;3.50;;;12.70;99.90;;;;;;5038270;28;20888;-52
2022/06/21 05:35:27;;;;;;;6.87;3.10;;;12.80;99.90;;;;;;5047921;28;21351;-52
2022/06/21 05:37:58;;;;;;;6.37;2.80;;;12.80;99.90;;;;;;5044974;28;20878;-53
2022/06/21 05:40:33;;;;;;;4.70;2.80;;;12.80;99.90;;;;;;5046921;28;20520;-53
2022/06/21 05:43:00;;;;;;;5.07;2.53;;;12.80;99.90;;;;;;5041530;28;20570;-53
2022/06/21 05:45:35;;;;;;;8.60;3.43;;;12.80;99.90;;;;;;5043424;28;20462;-54
2022/06/21 05:48:04;;;;;;;9.10;3.33;;;12.80;99.90;;;;;;5045564;28;20493;-52
2022/06/21 05:50:34;;;;;;;8.03;2.93;;;12.80;99.90;;;;;;5046352;28;20585;-52
2022/06/21 05:53:09;;;;;;;9.60;3.30;;;12.90;99.90;;;;;;5046960;28;21052;-52
2022/06/21 05:55:41;;;;;;;14.27;3.43;;;12.90;20.30;;;;;;5047960;28;20553;-52
2022/06/21 05:58:16;;;;;;;9.00;2.93;;;12.90;28.10;;;;;;5048214;28;20458;-52
2022/06/21 06:00:48;;;;;;;7.60;2.80;;;13.00;24.80;;;;;;5040925;28;20498;-53
2022/06/21 06:03:19;;;;;;;8.33;3.00;;;13.00;22.50;;;;;;5042698;28;20474;-52
2022/06/21 06:05:46;;;;;;;6.40;2.90;;;13.10;33.40;;;;;;5040571;28;20840;-52
2022/06/21 06:08:18;;;;;;;10.77;3.87;;;13.00;48.40;;;;;;5050578;28;20543;-52
2022/06/21 06:10:45;;;;;;;7.30;3.27;;;13.10;41.40;;;;;;5046004;28;20558;-54
2022/06/21 06:13:16;;;;;;;6.87;2.50;;;13.20;42.80;;;;;;5046285;28;21056;-55
2022/06/21 06:15:48;;;;;;;7.27;2.97;;;13.10;46.60;;;;;;5048317;28;20493;-53
2022/06/21 06:18:21;;;;;;;5.47;2.80;;;13.20;48.80;;;;;;5044004;28;20480;-51
2022/06/21 06:20:53;;;;;;;9.03;3.50;;;13.30;55.70;;;;;;5039524;28;20806;-53
2022/06/21 06:23:28;;;;;;;9.60;3.13;;;13.40;56.80;;;;;;5050670;28;20983;-54
2022/06/21 06:26:00;;;;;;;14.17;2.90;;;13.40;52.70;;;;;;5040324;28;20497;-51
2022/06/21 06:28:33;;;;;;;9.70;3.93;;;13.50;65.40;;;;;;5043696;28;22677;-52
2022/06/21 06:31:05;;;;;;;12.63;3.00;;;13.60;78.20;;;;;;5042909;28;20505;-52
2022/06/21 06:33:36;;;;;;;7.43;3.03;;;13.60;74.80;;;;;;5039676;28;20481;-53
2022/06/21 06:36:06;;;;;;;9.33;2.97;;;13.70;74.70;;;;;;5037136;28;20469;-53
2022/06/21 06:38:32;;;;;;;7.40;3.07;;;13.80;81.00;;;;;;5044255;28;21057;-53
2022/06/21 06:41:05;;;;;;;9.10;3.20;;;13.90;90.80;;;;;;5043202;28;20523;-51
2022/06/21 06:43:38;;;;;;;6.37;2.60;;;14.00;96.00;;;;;;5042704;28;21261;-51
2022/06/21 06:46:11;;;;;;;10.73;3.47;;;14.10;97.00;;;;;;5040992;28;20497;-52
2022/06/21 06:48:40;;;;;;;8.67;4.00;;;14.10;99.90;;;;;;5044007;28;20534;-53
2022/06/21 06:51:37;;;;;;;10.40;3.67;;;14.10;99.90;;;;;;5049080;28;20453;-55
2022/06/21 06:54:10;;;;;;;17.40;4.00;;;14.10;99.90;;;;;;5045249;28;20489;-53
2022/06/21 06:56:48;;;;;;;6.00;2.93;;;14.10;99.90;;;;;;5043600;28;20458;-53
2022/06/21 06:59:17;;;;;;;7.40;2.80;;;14.20;99.90;;;;;;5051319;28;20461;-52
2022/06/21 07:01:50;;;;;;;15.63;2.77;;;14.30;99.90;;;;;;5049824;28;20481;-52
2022/06/21 07:04:20;;;;;;;4.70;2.50;;;14.30;99.90;;;;;;5051011;28;20464;-52
2022/06/21 07:06:48;;;;;;;10.80;2.90;;;14.50;99.90;;;;;;5048996;28;20500;-51
2022/06/21 07:09:18;;;;;;;10.80;2.97;;;14.50;99.90;;;;;;5048512;28;20643;-52
2022/06/21 07:11:53;;;;;;;6.80;2.53;;;14.60;99.90;;;;;;5047614;28;20554;-53
2022/06/21 07:14:23;;;;;;;15.23;4.40;;;14.70;99.90;;;;;;5049455;28;20489;-52
2022/06/21 07:16:56;;;;;;;7.40;3.00;;;14.80;99.90;;;;;;5052926;28;20477;-52
2022/06/21 07:19:22;;;;;;;9.13;2.77;;;14.90;99.90;;;;;;5050955;28;20790;-53
2022/06/21 07:21:49;;;;;;;8.00;3.07;;;15.00;99.90;;;;;;5041252;28;20485;-53
2022/06/21 07:24:19;;;;;;;7.67;2.20;;;15.10;99.90;;;;;;5049481;28;20458;-53
2022/06/21 07:26:50;;;;;;;13.20;2.70;;;15.20;99.90;;;;;;5048247;28;20457;-52
2022/06/21 07:29:22;;;;;;;7.80;2.33;;;15.30;99.90;;;;;;5048366;28;20546;-52
2022/06/21 07:31:55;;;;;;;7.80;2.67;;;15.40;99.90;;;;;;5059763;28;20502;-52
2022/06/21 07:34:25;;;;;;;5.30;2.40;;;15.40;99.90;;;;;;5050522;28;20544;-52
2022/06/21 07:36:58;;;;;;;6.80;2.60;;;15.60;99.90;;;;;;5048606;28;20975;-52
2022/06/21 07:39:29;;;;;;;8.23;2.60;;;15.70;99.90;;;;;;5049930;28;20472;-52
2022/06/21 07:42:02;;;;;;;6.63;2.53;;;15.70;99.90;;;;;;5048623;28;20481;-52
2022/06/21 07:44:33;;;;;;;7.47;2.23;;;15.80;99.90;;;;;;5046746;28;20885;-53
2022/06/21 07:47:07;;;;;;;12.83;2.43;;;15.90;99.30;;;;;;5041333;28;20460;-52
2022/06/21 07:49:38;;;;;;;8.33;2.20;;;15.90;43.60;;;;;;5045795;28;20485;-53
2022/06/21 07:52:15;;;;;;;6.53;2.60;;;16.00;55.20;;;;;;5044932;28;20481;-53
2022/06/21 07:54:48;;;;;;;9.10;2.40;;;16.10;71.50;;;;;;5052606;28;20518;-52
2022/06/21 07:57:20;;;;;;;28.20;2.33;;;16.10;75.50;;;;;;5049501;28;21039;-52
2022/06/21 07:59:53;;;;;;;7.80;2.43;;;16.20;80.60;;;;;;5050387;28;20486;-52
2022/06/21 08:08:15;;;;;;;10.80;3.40;;;16.50;80.90;;;;;;5041432;28;20486;-52
2022/06/21 08:10:47;;;;;;;5.63;2.10;;;16.60;82.40;;;;;;5042208;28;21027;-53
2022/06/21 08:13:13;;;;;;;7.90;2.73;;;16.70;87.80;;;;;;5048416;28;20632;-53
2022/06/21 08:15:45;;;;;;;8.10;2.23;;;16.80;83.20;;;;;;5048568;28;20897;-52
2022/06/21 08:18:21;;;;;;;7.80;2.10;;;16.80;89.90;;;;;;5045901;28;20543;-51
2022/06/21 08:20:57;;;;;;;11.40;2.00;;;17.00;90.20;;;;;;5043112;28;20457;-53
2022/06/21 08:23:31;;;;;;;6.53;2.00;;;17.10;97.40;;;;;;5046555;28;20481;-52
2022/06/21 08:26:02;;;;;;;3.70;1.70;;;17.10;99.90;;;;;;5044759;28;20485;-53
2022/06/21 08:28:35;;;;;;;3.40;2.00;;;17.20;99.90;;;;;;5045898;28;21021;-52
2022/06/21 08:31:09;;;;;;;9.43;2.33;;;17.30;99.90;;;;;;5043890;28;20462;-52
2022/06/21 08:33:43;;;;;;;8.00;2.20;;;17.40;99.90;;;;;;5048361;28;20904;-52
2022/06/21 08:36:14;;;;;;;9.27;2.80;;;17.50;99.90;;;;;;5049699;28;20874;-52
2022/06/21 08:38:46;;;;;;;3.13;1.60;;;17.80;92.90;;;;;;5049201;28;20535;-52
2022/06/21 08:41:57;;;;;;;3.87;1.80;;;17.90;99.90;;;;;;5048366;28;21034;-53
2022/06/21 08:48:07;;;;;;;8.87;1.80;;;18.10;99.90;;;;;;5048406;28;20441;-52
2022/06/21 08:51:13;;;;;;;8.83;2.37;;;18.20;99.90;;;;;;5044575;28;20523;-52
2022/06/21 08:53:50;;;;;;;2.40;1.77;;;18.30;99.90;;;;;;5008640;28;20575;-52
2022/06/21 08:56:22;;;;;;;9.97;2.60;;;18.40;99.90;;;;;;5034129;28;20458;-52
2022/06/21 08:59:02;;;;;;;4.27;1.60;;;18.40;99.90;;;;;;5037616;28;20496;-51
2022/06/21 09:01:34;;;;;;;3.83;1.80;;;18.50;99.90;;;;;;5043301;28;20454;-52
2022/06/21 09:04:24;;;;;;;4.23;1.93;;;18.60;99.90;;;;;;5040455;28;20555;-52
2022/06/21 09:07:06;;;;;;;5.33;1.63;;;18.70;99.90;;;;;;5040033;28;20502;-51
2022/06/21 09:09:43;;;;;;;9.13;1.90;;;18.70;99.90;;;;;;5034580;28;20465;-53
2022/06/21 09:12:21;;;;;;;5.50;1.93;;;18.90;99.90;;;;;;5044768;28;20477;-51
2022/06/21 09:15:08;;;;;;;6.63;2.00;;;19.10;99.90;;;;;;5043198;28;20457;-52
2022/06/21 09:17:43;;;;;;;8.13;2.87;;;19.20;99.90;;;;;;5036287;28;20536;-52
2022/06/21 09:20:19;;;;;;;5.63;2.03;;;19.40;99.90;;;;;;5037088;28;20459;-52
2022/06/21 09:23:03;;;;;;;3.47;1.60;;;19.50;99.90;;;;;;5041018;28;20562;-53
2022/06/21 09:25:37;;;;;;;7.30;2.03;;;19.50;99.90;;;;;;5043154;28;20976;-51
2022/06/21 09:28:09;;;;;;;7.07;2.13;;;19.50;99.90;;;;;;5047218;28;20947;-53
2022/06/21 09:30:42;;;;;;;8.50;2.10;;;19.60;99.90;;;;;;5046918;28;20966;-52
2022/06/21 09:33:15;;;;;;;10.07;2.23;;;19.60;99.90;;;;;;5039370;28;20579;-51
2022/06/21 09:35:48;;;;;;;5.90;2.20;;;19.70;99.90;;;;;;5046263;28;20461;-52
2022/06/21 09:38:27;;;;;;;8.30;2.50;;;19.70;99.90;;;;;;5045880;28;20458;-53
2022/06/21 09:41:05;;;;;;;3.07;1.93;;;19.80;99.90;;;;;;5038283;28;20524;-51
2022/06/21 09:43:42;;;;;;;12.13;2.20;;;19.90;99.90;;;;;;5040674;28;20513;-52
2022/06/21 09:46:18;;;;;;;7.93;1.57;;;20.00;99.90;;;;;;5042510;28;20521;-53
2022/06/21 09:48:57;;;;;;;11.93;2.33;;;20.00;99.90;;;;;;5041192;28;20459;-52
2022/06/21 09:51:30;;;;;;;5.83;1.63;;;20.10;99.90;;;;;;5037504;28;20542;-52
2022/06/21 09:54:25;;;;;;;8.13;2.83;;;20.30;99.90;;;;;;5035386;28;21295;-52
2022/06/21 09:56:58;;;;;;;3.67;1.40;;;20.40;99.90;;;;;;5041260;28;20492;-53
2022/06/21 09:59:32;;;;;;;4.30;1.90;;;20.50;99.90;;;;;;5042245;28;20492;-52
2022/06/21 10:02:04;;;;;;;4.67;1.20;;;20.50;99.90;;;;;;5045020;28;20516;-53
2022/06/21 10:04:38;;;;;;;3.00;1.43;;;20.50;99.90;;;;;;5048282;28;20978;-52
2022/06/21 10:07:18;;;;;;;9.03;2.00;;;20.60;99.90;;;;;;5042956;28;20488;-52
2022/06/21 10:10:01;;;;;;;5.70;1.67;;;20.70;99.90;;;;;;5038957;28;20513;-52
2022/06/21 10:12:38;;;;;;;6.33;1.90;;;20.70;99.90;;;;;;5045309;28;20999;-52
2022/06/21 10:15:46;;;;;;;4.00;1.57;;;20.70;99.90;;;;;;5036015;28;20893;-52
2022/06/21 10:18:47;;;;;;;3.83;1.60;;;20.70;99.90;;;;;;4962366;28;20474;-52
2022/06/21 10:21:35;;;;;;;3.67;1.80;;;20.80;99.90;;;;;;4954988;28;20649;-52
2022/06/21 10:24:38;;;;;;;5.10;1.50;;;20.90;99.90;;;;;;5036747;28;20475;-52
2022/06/21 10:27:30;;;;;;;4.63;1.90;;;21.00;99.90;;;;;;5042969;28;20515;-52
2022/06/21 10:30:21;;;;;;;5.97;1.90;;;21.10;99.90;;;;;;5039997;28;20453;-53
2022/06/21 10:32:59;;;;;;;5.77;1.57;;;21.20;99.90;;;;;;5042311;28;20530;-52
2022/06/21 10:35:39;;;;;;;4.30;1.83;;;21.30;99.90;;;;;;5041443;28;20967;-53
2022/06/21 10:38:38;;;;;;;3.93;1.70;;;21.40;99.90;;;;;;5054918;28;20494;-53
2022/06/21 10:41:18;;;;;;;10.13;2.37;;;21.40;99.90;;;;;;5039332;28;20516;-52
2022/06/21 10:44:01;;;;;;;5.73;1.20;;;21.50;99.90;;;;;;5041706;28;20895;-52
2022/06/21 10:46:29;;;;;;;3.70;1.23;;;21.60;99.90;;;;;;5040901;28;20871;-52
2022/06/21 10:49:20;;;;;;;6.50;2.67;;;21.70;99.90;;;;;;5048958;28;20489;-52
2022/06/21 10:52:00;;;;;;;4.27;1.70;;;21.80;99.90;;;;;;5042791;28;20507;-51
2022/06/21 10:54:51;;;;;;;4.50;1.53;;;21.90;99.90;;;;;;5045094;28;20469;-52
2022/06/21 10:57:27;;;;;;;3.87;1.30;;;22.10;99.90;;;;;;5052415;28;20487;-52
2022/06/21 11:03:21;;;;;;;6.30;1.30;;;22.20;99.90;;;;;;5037008;28;20523;-52
2022/06/21 11:05:55;;;;;;;4.30;1.57;;;22.10;99.90;;;;;;5033740;28;20571;-52
2022/06/21 11:08:34;;;;;;;2.57;1.30;;;22.30;99.90;;;;;;5040776;28;20486;-52
2022/06/21 11:11:07;;;;;;;6.20;1.80;;;22.20;99.90;;;;;;5037875;28;20490;-51
2022/06/21 11:13:40;;;;;;;2.80;1.43;;;22.20;99.90;;;;;;5035721;28;20520;-52
2022/06/21 11:16:15;;;;;;;3.97;1.20;;;22.30;99.90;;;;;;5043434;28;20480;-51
2022/06/21 11:18:52;;;;;;;5.33;1.57;;;22.40;99.90;;;;;;5043314;28;21853;-53
2022/06/21 11:21:35;;;;;;;4.63;1.17;;;22.50;99.90;;;;;;5042820;28;20551;-53
2022/06/21 11:24:12;;;;;;;7.10;1.60;;;22.70;99.90;;;;;;5045037;28;20536;-52
2022/06/21 11:26:51;;;;;;;4.03;1.47;;;22.80;99.90;;;;;;5040991;28;20449;-52
2022/06/21 11:29:31;;;;;;;3.73;1.10;;;22.80;99.90;;;;;;5042309;28;20484;-52
2022/06/21 11:32:10;;;;;;;1.53;1.10;;;22.80;99.90;;;;;;5043490;28;20515;-53
2022/06/21 11:34:44;;;;;;;3.10;1.00;;;22.80;99.90;;;;;;5037632;28;21002;-52
2022/06/21 11:37:25;;;;;;;3.53;1.50;;;22.90;99.90;;;;;;5043224;28;20552;-52
2022/06/21 11:40:02;;;;;;;2.03;0.80;;;22.90;99.90;;;;;;5049092;28;21024;-52
2022/06/21 11:42:36;;;;;;;11.40;2.73;;;23.00;99.90;;;;;;5045628;28;20517;-52
2022/06/21 11:45:27;;;;;;;4.90;1.23;;;23.10;99.90;;;;;;5043714;28;20459;-52
2022/06/21 11:48:28;;;;;;;6.93;1.30;;;23.20;99.90;;;;;;5046966;28;20458;-51
2022/06/21 11:51:05;;;;;;;1.10;1.00;;;23.30;99.90;;;;;;4997137;28;20457;-52
2022/06/21 11:53:45;;;;;;;5.70;1.80;;;23.00;99.90;;;;;;5041551;28;20577;-52
2022/06/21 11:56:19;;;;;;;1.77;1.17;;;23.10;99.90;;;;;;5042532;28;22115;-52
2022/06/21 11:58:51;;;;;;;2.83;1.10;;;23.10;99.90;;;;;;5042859;28;20453;-52
2022/06/21 12:01:24;;;;;;;4.93;1.40;;;23.30;99.90;;;;;;5037852;28;20478;-52
2022/06/21 12:04:03;;;;;;;3.33;1.13;;;23.40;99.90;;;;;;5041413;28;20529;-52
2022/06/21 12:06:39;;;;;;;5.23;1.63;;;23.40;99.90;;;;;;5039811;28;20985;-52
2022/06/21 12:09:16;;;;;;;2.03;1.30;;;23.50;99.90;;;;;;5039306;28;20482;-52
2022/06/21 12:11:54;;;;;;;3.60;1.97;;;23.60;99.90;;;;;;5037549;28;20820;-51
2022/06/21 12:14:32;;;;;;;4.93;1.40;;;23.40;99.90;;;;;;5037328;28;20527;-51
2022/06/21 12:17:06;;;;;;;14.97;1.93;;;23.30;99.90;;;;;;5035709;28;20493;-52
2022/06/21 12:19:40;;;;;;;3.43;1.13;;;23.40;99.90;;;;;;5038234;28;20458;-53
2022/06/21 12:22:16;;;;;;;1.73;1.20;;;23.50;99.90;;;;;;5038523;28;20482;-51
2022/06/21 12:24:42;;;;;;;4.27;1.20;;;23.70;99.90;;;;;;5038442;28;20453;-52
2022/06/21 12:27:11;;;;;;;2.70;1.40;;;23.70;99.90;;;;;;5038041;28;20498;-51
2022/06/21 12:29:38;;;;;;;2.37;1.17;;;23.80;99.90;;;;;;5039752;28;20455;-51
2022/06/21 12:32:11;;;;;;;7.00;1.27;;;23.70;99.90;;;;;;5039062;28;20505;-51
2022/06/21 12:34:42;;;;;;;2.13;0.83;;;23.80;99.90;;;;;;5039699;28;20514;-52
2022/06/21 12:37:13;;;;;;;6.43;1.07;;;24.10;99.90;;;;;;5045148;28;20587;-52
2022/06/21 12:39:50;;;;;;;3.27;1.10;;;24.10;99.90;;;;;;5041963;28;20504;-51
2022/06/21 12:42:40;;;;;;;3.30;1.20;;;24.20;99.90;;;;;;5041640;28;20525;-52
2022/06/21 12:45:23;;;;;;;2.20;0.83;;;24.20;99.90;;;;;;5042858;28;20473;-51
2022/06/21 12:48:15;;;;;;;5.00;1.20;;;24.30;99.90;;;;;;5051834;28;20519;-52
2022/06/21 12:50:54;;;;;;;1.40;1.00;;;24.40;99.90;;;;;;5050446;28;20473;-53
2022/06/21 12:53:47;;;;;;;1.57;1.10;;;24.30;99.90;;;;;;5050527;28;20469;-52
2022/06/21 12:56:26;;;;;;;4.60;1.00;;;24.20;99.90;;;;;;5052283;28;20553;-53
2022/06/21 12:59:14;;;;;;;2.00;1.07;;;24.40;99.90;;;;;;5045627;28;20830;-52
2022/06/21 13:01:47;;;;;;;1.53;0.70;;;24.50;99.90;;;;;;5041447;28;20524;-53
2022/06/21 13:04:31;;;;;;;1.73;0.70;;;24.40;99.90;;;;;;5047470;28;20463;-52
2022/06/21 13:07:15;;;;;;;7.30;1.07;;;24.40;99.90;;;;;;5041986;28;20489;-52
2022/06/21 13:10:10;;;;;;;4.50;0.80;;;24.40;99.90;;;;;;5036535;28;20469;-52
2022/06/21 13:12:49;;;;;;;1.57;0.90;;;24.40;99.90;;;;;;5045849;28;20898;-53
2022/06/21 13:15:51;;;;;;;3.53;1.07;;;24.50;99.90;;;;;;5048411;28;21042;-52
2022/06/21 13:18:48;;;;;;;3.03;1.20;;;24.60;99.90;;;;;;5040345;28;20463;-53
2022/06/21 13:21:27;;;;;;;1.70;1.10;;;24.60;99.90;;;;;;5049681;28;20450;-52
2022/06/21 13:24:09;;;;;;;13.60;1.00;;;24.60;99.90;;;;;;5047687;28;20523;-52
2022/06/21 13:27:08;;;;;;;3.97;1.20;;;24.70;99.90;;;;;;5045243;28;20482;-52
2022/06/21 13:29:47;;;;;;;3.23;1.30;;;24.70;99.90;;;;;;5038098;28;20887;-53
2022/06/21 13:32:20;;;;;;;2.63;1.57;;;24.70;99.90;;;;;;5040715;28;20482;-52
2022/06/21 13:34:51;;;;;;;1.67;0.70;;;24.70;99.90;;;;;;5045505;28;20537;-52
2022/06/21 13:37:22;;;;;;;7.17;1.23;;;24.70;99.90;;;;;;5050043;28;20536;-52